createdAt,value
2016-06-04T00:00:55.403Z,0
2016-06-04T00:01:55.391Z,0
2016-06-04T00:02:55.377Z,0
2016-06-04T00:03:55.412Z,0
2016-06-04T00:04:55.399Z,0
2016-06-04T00:05:55.449Z,0
2016-06-04T00:06:55.389Z,0
2016-06-04T00:07:55.422Z,0
2016-06-04T00:08:55.425Z,0
2016-06-04T00:10:08.132Z,0
2016-06-04T00:11:14.462Z,0
2016-06-04T00:11:55.511Z,0
2016-06-04T00:12:55.436Z,0
2016-06-04T00:13:55.438Z,0
2016-06-04T00:14:55.441Z,0
2016-06-04T00:15:55.443Z,0
2016-06-04T00:16:55.431Z,0
2016-06-04T00:17:55.449Z,0
2016-06-04T00:18:55.436Z,0
2016-06-04T00:19:55.455Z,0
2016-06-04T00:20:55.411Z,0
2016-06-04T00:21:55.445Z,0
2016-06-04T00:22:55.447Z,0
2016-06-04T00:23:55.465Z,0
2016-06-04T00:24:55.484Z,0
2016-06-04T00:25:55.550Z,0
2016-06-04T00:27:14.661Z,0
2016-06-04T00:27:55.475Z,0
2016-06-04T00:28:55.308Z,0
2016-06-04T00:29:55.497Z,0
2016-06-04T00:30:55.484Z,0
2016-06-04T00:31:55.486Z,0
2016-06-04T00:32:55.568Z,0
2016-06-04T00:33:55.461Z,0
2016-06-04T00:34:55.480Z,0
2016-06-04T00:35:55.497Z,0
2016-06-04T00:36:55.500Z,0
2016-06-04T00:37:55.503Z,0
2016-06-04T00:38:55.491Z,0
2016-06-04T00:39:55.493Z,0
2016-06-04T00:40:55.886Z,0
2016-06-04T00:41:55.452Z,0
2016-06-04T00:42:55.657Z,0
2016-06-04T00:43:55.519Z,0
2016-06-04T00:44:55.646Z,0
2016-06-04T00:45:55.525Z,0
2016-06-04T00:46:55.559Z,0
2016-06-04T00:47:55.546Z,0
2016-06-04T00:48:55.564Z,0
2016-06-04T00:49:55.520Z,0
2016-06-04T00:50:55.523Z,0
2016-06-04T00:51:55.509Z,0
2016-06-04T00:52:55.529Z,0
2016-06-04T00:53:55.515Z,0
2016-06-04T00:54:55.517Z,0
2016-06-04T00:55:55.614Z,0
2016-06-04T00:56:55.586Z,0
2016-06-04T00:58:14.761Z,0
2016-06-04T00:58:55.571Z,0
2016-06-04T00:59:55.577Z,0
2016-06-04T01:00:55.628Z,0
2016-06-04T01:01:55.665Z,0
2016-06-04T01:02:55.716Z,0
2016-06-04T01:03:55.588Z,0
2016-06-04T01:04:55.744Z,0
2016-06-04T01:05:55.618Z,0
2016-06-04T01:06:55.788Z,0
2016-06-04T01:07:55.819Z,0
2016-06-04T01:08:55.814Z,0
2016-06-04T01:09:55.837Z,0
2016-06-04T01:10:56.344Z,0
2016-06-04T01:11:56.476Z,0
2016-06-04T01:12:55.858Z,0
2016-06-04T01:13:55.864Z,0
2016-06-04T01:15:15.040Z,0
2016-06-04T01:15:55.856Z,0
2016-06-04T01:16:55.939Z,0
2016-06-04T01:17:55.881Z,0
2016-06-04T01:18:55.884Z,0
2016-06-04T01:19:55.934Z,0
2016-06-04T01:20:55.875Z,0
2016-06-04T01:22:15.082Z,0
2016-06-04T01:22:55.897Z,0
2016-06-04T01:23:55.869Z,0
2016-06-04T01:24:55.872Z,0
2016-06-04T01:25:55.890Z,0
2016-06-04T01:26:57.112Z,0
2016-06-04T01:27:55.912Z,0
2016-06-04T01:28:55.899Z,0
2016-06-04T01:29:55.902Z,0
2016-06-04T01:30:55.905Z,0
2016-06-04T01:31:55.876Z,0
2016-06-04T01:32:55.910Z,0
2016-06-04T01:33:55.897Z,0
2016-06-04T01:34:55.760Z,0
2016-06-04T01:35:55.903Z,0
2016-06-04T01:36:55.921Z,0
2016-06-04T01:37:55.924Z,0
2016-06-04T01:38:55.942Z,0
2016-06-04T01:39:55.945Z,0
2016-06-04T01:40:56.042Z,0
2016-06-04T01:41:55.997Z,0
2016-06-04T01:42:55.984Z,0
2016-06-04T01:43:55.940Z,0
2016-06-04T01:44:55.927Z,0
2016-06-04T01:45:55.945Z,0
2016-06-04T01:46:55.917Z,0
2016-06-04T01:47:55.951Z,0
2016-06-04T01:48:55.953Z,0
2016-06-04T01:49:55.988Z,0
2016-06-04T01:50:55.958Z,0
2016-06-04T01:51:55.977Z,0
2016-06-04T01:53:15.183Z,0
2016-06-04T01:53:55.966Z,0
2016-06-04T01:54:56.063Z,0
2016-06-04T01:55:55.972Z,0
2016-06-04T01:56:56.272Z,0
2016-06-04T01:57:55.978Z,0
2016-06-04T01:58:55.965Z,0
2016-06-04T01:59:55.967Z,0
2016-06-04T02:00:56.002Z,0
2016-06-04T02:01:55.973Z,0
2016-06-04T02:02:55.990Z,0
2016-06-04T02:03:55.979Z,0
2016-06-04T02:04:55.981Z,0
2016-06-04T02:05:56.045Z,0
2016-06-04T02:06:55.971Z,0
2016-06-04T02:07:56.051Z,0
2016-06-04T02:08:55.991Z,0
2016-06-04T02:09:55.995Z,0
2016-06-04T02:10:56.529Z,0
2016-06-04T02:11:56.046Z,0
2016-06-04T02:12:56.050Z,0
2016-06-04T02:13:56.005Z,0
2016-06-04T02:14:56.039Z,0
2016-06-04T02:15:56.025Z,0
2016-06-04T02:17:15.216Z,0
2016-06-04T02:17:55.875Z,0
2016-06-04T02:18:56.019Z,0
2016-06-04T02:19:55.896Z,0
2016-06-04T02:20:56.055Z,0
2016-06-04T02:21:56.042Z,0
2016-06-04T02:22:56.045Z,0
2016-06-04T02:23:56.033Z,0
2016-06-04T02:24:56.050Z,0
2016-06-04T02:25:56.427Z,0
2016-06-04T02:26:56.259Z,0
2016-06-04T02:28:15.277Z,0
2016-06-04T02:28:56.060Z,0
2016-06-04T02:29:56.048Z,0
2016-06-04T02:30:56.051Z,0
2016-06-04T02:31:56.085Z,0
2016-06-04T02:32:56.056Z,0
2016-06-04T02:33:56.106Z,0
2016-06-04T02:34:56.062Z,0
2016-06-04T02:36:15.268Z,0
2016-06-04T02:36:56.082Z,0
2016-06-04T02:37:56.100Z,0
2016-06-04T02:38:56.073Z,0
2016-06-04T02:39:56.090Z,0
2016-06-04T02:40:56.609Z,0
2016-06-04T02:41:57.753Z,0
2016-06-04T02:42:56.286Z,0
2016-06-04T02:43:56.101Z,0
2016-06-04T02:44:56.136Z,4
2016-06-04T02:45:56.106Z,4
2016-06-04T02:47:15.156Z,4
2016-06-04T02:47:56.127Z,0
2016-06-04T02:48:56.099Z,0
2016-06-04T02:49:56.117Z,0
2016-06-04T02:50:56.105Z,4
2016-06-04T02:51:56.091Z,4
2016-06-04T02:52:56.141Z,4
2016-06-04T02:53:56.160Z,0
2016-06-04T02:54:56.100Z,4
2016-06-04T02:55:56.196Z,4
2016-06-04T02:56:56.715Z,4
2016-06-04T02:57:56.138Z,8
2016-06-04T02:58:56.126Z,8
2016-06-04T02:59:56.160Z,8
2016-06-04T03:00:56.241Z,8
2016-06-04T03:01:56.149Z,8
2016-06-04T03:02:56.027Z,12
2016-06-04T03:04:15.359Z,12
2016-06-04T03:04:56.127Z,12
2016-06-04T03:05:56.145Z,16
2016-06-04T03:06:56.148Z,20
2016-06-04T03:07:56.151Z,20
2016-06-04T03:08:56.153Z,24
2016-06-04T03:09:56.156Z,32
2016-06-04T03:10:56.173Z,32
2016-06-04T03:11:56.505Z,40
2016-06-04T03:12:56.179Z,48
2016-06-04T03:13:56.182Z,56
2016-06-04T03:14:56.169Z,60
2016-06-04T03:15:56.172Z,72
2016-06-04T03:16:56.175Z,80
2016-06-04T03:17:56.177Z,88
2016-06-04T03:18:56.150Z,96
2016-06-04T03:19:56.152Z,120
2016-06-04T03:20:56.200Z,140
2016-06-04T03:21:56.189Z,172
2016-06-04T03:22:56.238Z,200
2016-06-04T03:23:56.194Z,224
2016-06-04T03:24:56.180Z,252
2016-06-04T03:25:56.246Z,280
2016-06-04T03:26:56.452Z,308
2016-06-04T03:27:56.189Z,336
2016-06-04T03:28:56.207Z,360
2016-06-04T03:29:56.194Z,384
2016-06-04T03:31:08.932Z,420
2016-06-04T03:32:08.966Z,444
2016-06-04T03:32:56.217Z,472
2016-06-04T03:33:56.236Z,496
2016-06-04T03:34:56.238Z,532
2016-06-04T03:35:56.226Z,568
2016-06-04T03:36:56.228Z,612
2016-06-04T03:37:56.246Z,648
2016-06-04T03:38:56.265Z,688
2016-06-04T03:39:56.221Z,728
2016-06-04T03:40:56.301Z,768
2016-06-04T03:41:56.086Z,812
2016-06-04T03:42:56.275Z,860
2016-06-04T03:43:56.216Z,900
2016-06-04T03:44:56.234Z,948
2016-06-04T03:45:56.253Z,996
2016-06-04T03:46:56.240Z,1044
2016-06-04T03:47:56.242Z,1092
2016-06-04T03:48:56.245Z,1144
2016-06-04T03:49:56.263Z,1188
2016-06-04T03:50:56.250Z,1232
2016-06-04T03:51:56.268Z,1276
2016-06-04T03:52:56.334Z,1312
2016-06-04T03:53:56.321Z,1356
2016-06-04T03:54:56.277Z,1384
2016-06-04T03:55:56.107Z,1392
2016-06-04T03:56:57.282Z,1392
2016-06-04T03:57:56.285Z,1396
2016-06-04T03:58:56.272Z,1412
2016-06-04T03:59:56.290Z,1428
2016-06-04T04:00:56.262Z,1440
2016-06-04T04:01:56.327Z,1448
2016-06-04T04:02:56.377Z,1456
2016-06-04T04:03:56.301Z,1484
2016-06-04T04:04:56.366Z,1508
2016-06-04T04:05:56.307Z,1516
2016-06-04T04:06:56.293Z,1504
2016-06-04T04:07:56.281Z,1492
2016-06-04T04:08:56.173Z,1480
2016-06-04T04:09:56.317Z,1508
2016-06-04T04:11:16.023Z,1552
2016-06-04T04:11:56.213Z,1580
2016-06-04T04:12:56.340Z,1616
2016-06-04T04:13:56.343Z,1656
2016-06-04T04:14:56.331Z,1692
2016-06-04T04:15:56.317Z,1736
2016-06-04T04:16:56.320Z,1748
2016-06-04T04:17:56.308Z,1744
2016-06-04T04:18:56.356Z,1732
2016-06-04T04:19:56.313Z,1748
2016-06-04T04:20:56.347Z,1780
2016-06-04T04:21:56.350Z,1824
2016-06-04T04:22:56.383Z,1872
2016-06-04T04:23:56.339Z,1896
2016-06-04T04:24:56.358Z,1912
2016-06-04T04:25:57.830Z,1900
2016-06-04T04:26:56.300Z,1900
2016-06-04T04:27:56.366Z,1916
2016-06-04T04:28:56.369Z,1968
2016-06-04T04:29:56.355Z,2076
2016-06-04T04:30:56.357Z,2220
2016-06-04T04:31:56.298Z,2384
2016-06-04T04:32:56.348Z,2544
2016-06-04T04:33:56.366Z,2684
2016-06-04T04:34:56.353Z,2756
2016-06-04T04:35:56.387Z,2784
2016-06-04T04:36:56.390Z,2740
2016-06-04T04:37:56.407Z,2632
2016-06-04T04:38:56.396Z,2480
2016-06-04T04:40:09.101Z,2292
2016-06-04T04:40:56.635Z,2184
2016-06-04T04:41:56.778Z,2088
2016-06-04T04:42:56.531Z,2028
2016-06-04T04:43:56.424Z,1996
2016-06-04T04:44:56.396Z,1976
2016-06-04T04:45:56.398Z,1960
2016-06-04T04:46:56.432Z,1932
2016-06-04T04:47:56.403Z,1900
2016-06-04T04:48:56.406Z,1856
2016-06-04T04:49:56.425Z,1816
2016-06-04T04:50:56.443Z,1764
2016-06-04T04:51:56.430Z,1720
2016-06-04T04:52:56.448Z,1700
2016-06-04T04:53:56.467Z,1672
2016-06-04T04:54:56.439Z,1656
2016-06-04T04:55:56.300Z,1648
2016-06-04T04:56:56.787Z,1656
2016-06-04T04:57:56.447Z,1664
2016-06-04T04:58:56.449Z,1676
2016-06-04T04:59:56.466Z,1684
2016-06-04T05:00:56.438Z,1696
2016-06-04T05:01:56.488Z,1716
2016-06-04T05:02:56.460Z,1732
2016-06-04T05:03:56.447Z,1740
2016-06-04T05:05:15.668Z,1780
2016-06-04T05:05:56.483Z,1804
2016-06-04T05:06:56.471Z,1864
2016-06-04T05:07:56.332Z,1920
2016-06-04T05:08:56.507Z,1968
2016-06-04T05:09:56.494Z,2000
2016-06-04T05:10:56.637Z,2020
2016-06-04T05:11:56.968Z,2032
2016-06-04T05:12:56.502Z,2008
2016-06-04T05:13:56.474Z,1976
2016-06-04T05:14:56.492Z,1948
2016-06-04T05:15:56.478Z,1908
2016-06-04T05:16:56.717Z,1876
2016-06-04T05:17:56.500Z,1852
2016-06-04T05:18:56.503Z,1864
2016-06-04T05:19:56.600Z,1876
2016-06-04T05:20:56.493Z,1908
2016-06-04T05:21:56.511Z,1956
2016-06-04T05:22:56.528Z,2012
2016-06-04T05:23:56.517Z,2072
2016-06-04T05:24:56.534Z,2136
2016-06-04T05:25:56.397Z,2232
2016-06-04T05:26:56.524Z,2348
2016-06-04T05:27:56.511Z,2488
2016-06-04T05:28:56.592Z,2656
2016-06-04T05:29:56.376Z,2840
2016-06-04T05:30:56.535Z,3040
2016-06-04T05:31:56.569Z,3236
2016-06-04T05:32:56.556Z,3404
2016-06-04T05:33:56.543Z,3564
2016-06-04T05:34:56.561Z,3748
2016-06-04T05:35:56.563Z,3932
2016-06-04T05:37:09.286Z,4108
2016-06-04T05:38:02.835Z,4204
2016-06-04T05:38:56.572Z,4304
2016-06-04T05:39:56.591Z,4420
2016-06-04T05:40:56.437Z,4540
2016-06-04T05:41:58.096Z,4640
2016-06-04T05:42:56.614Z,4712
2016-06-04T05:43:56.585Z,4760
2016-06-04T05:44:56.588Z,4784
2016-06-04T05:45:56.419Z,4772
2016-06-04T05:46:56.609Z,4756
2016-06-04T05:47:56.596Z,4704
2016-06-04T05:48:56.599Z,4612
2016-06-04T05:49:56.586Z,4528
2016-06-04T05:50:56.620Z,4432
2016-06-04T05:51:56.607Z,4356
2016-06-04T05:53:15.828Z,4260
2016-06-04T05:53:56.612Z,4240
2016-06-04T05:54:56.615Z,4204
2016-06-04T05:55:56.883Z,4180
2016-06-04T05:56:57.355Z,4136
2016-06-04T05:57:56.452Z,4128
2016-06-04T05:58:56.642Z,4124
2016-06-04T05:59:56.628Z,4140
2016-06-04T06:00:56.631Z,4176
2016-06-04T06:01:56.649Z,4216
2016-06-04T06:02:56.762Z,4232
2016-06-04T06:03:56.639Z,4232
2016-06-04T06:04:56.642Z,4212
2016-06-04T06:05:56.644Z,4172
2016-06-04T06:06:56.663Z,4132
2016-06-04T06:07:56.649Z,4112
2016-06-04T06:08:56.637Z,4108
2016-06-04T06:09:56.655Z,4116
2016-06-04T06:11:16.237Z,4156
2016-06-04T06:11:56.551Z,4184
2016-06-04T06:12:56.663Z,4200
2016-06-04T06:13:56.713Z,4208
2016-06-04T06:14:56.638Z,4204
2016-06-04T06:15:56.750Z,4180
2016-06-04T06:16:56.753Z,4144
2016-06-04T06:17:56.693Z,4088
2016-06-04T06:18:56.679Z,4024
2016-06-04T06:19:56.714Z,3964
2016-06-04T06:20:56.717Z,3916
2016-06-04T06:21:56.687Z,3852
2016-06-04T06:23:09.472Z,3788
2016-06-04T06:23:56.724Z,3748
2016-06-04T06:24:56.695Z,3708
2016-06-04T06:25:56.746Z,3684
2016-06-04T06:26:56.811Z,3680
2016-06-04T06:27:56.735Z,3676
2016-06-04T06:28:56.738Z,3656
2016-06-04T06:29:56.741Z,3648
2016-06-04T06:30:56.774Z,3640
2016-06-04T06:31:56.746Z,3656
2016-06-04T06:32:56.780Z,3680
2016-06-04T06:33:56.752Z,3668
2016-06-04T06:34:56.769Z,3624
2016-06-04T06:35:56.788Z,3536
2016-06-04T06:36:56.807Z,3428
2016-06-04T06:37:56.777Z,3300
2016-06-04T06:38:56.796Z,3176
2016-06-04T06:39:56.783Z,3076
2016-06-04T06:40:56.957Z,3008
2016-06-04T06:41:57.101Z,2968
2016-06-04T06:42:56.666Z,2952
2016-06-04T06:43:56.871Z,2948
2016-06-04T06:44:56.796Z,2952
2016-06-04T06:45:56.924Z,2956
2016-06-04T06:46:56.802Z,2944
2016-06-04T06:47:56.820Z,2920
2016-06-04T06:48:56.807Z,2888
2016-06-04T06:50:15.981Z,2836
2016-06-04T06:50:56.813Z,2812
2016-06-04T06:51:56.815Z,2792
2016-06-04T06:52:56.818Z,2804
2016-06-04T06:53:56.820Z,2836
2016-06-04T06:54:56.839Z,2916
2016-06-04T06:55:56.698Z,3040
2016-06-04T06:56:56.826Z,3196
2016-06-04T06:57:56.985Z,3376
2016-06-04T06:58:56.831Z,3552
2016-06-04T06:59:56.850Z,3704
2016-06-04T07:00:56.822Z,3848
2016-06-04T07:01:56.825Z,3964
2016-06-04T07:02:56.874Z,4068
2016-06-04T07:03:56.861Z,4152
2016-06-04T07:04:56.847Z,4200
2016-06-04T07:05:56.850Z,4228
2016-06-04T07:06:56.853Z,4272
2016-06-04T07:07:56.856Z,4356
2016-06-04T07:08:56.905Z,4460
2016-06-04T07:09:56.860Z,4584
2016-06-04T07:10:57.051Z,4724
2016-06-04T07:11:57.585Z,4880
2016-06-04T07:13:15.934Z,4988
2016-06-04T07:13:56.887Z,5024
2016-06-04T07:14:56.875Z,5156
2016-06-04T07:15:56.877Z,5332
2016-06-04T07:16:56.895Z,5368
2016-06-04T07:17:56.929Z,5316
2016-06-04T07:18:56.729Z,5488
2016-06-04T07:19:56.920Z,5628
2016-06-04T07:20:56.906Z,5680
2016-06-04T07:21:56.925Z,5684
2016-06-04T07:22:56.959Z,5664
2016-06-04T07:23:56.931Z,5608
2016-06-04T07:24:56.948Z,5536
2016-06-04T07:25:57.466Z,5456
2016-06-04T07:26:56.939Z,5448
2016-06-04T07:28:16.162Z,5508
2016-06-04T07:28:56.975Z,5572
2016-06-04T07:29:56.962Z,5616
2016-06-04T07:30:56.949Z,5672
2016-06-04T07:31:56.952Z,5684
2016-06-04T07:32:56.938Z,5732
2016-06-04T07:33:56.941Z,5780
2016-06-04T07:34:56.975Z,5816
2016-06-04T07:35:56.963Z,5848
2016-06-04T07:36:56.965Z,5848
2016-06-04T07:37:56.983Z,5852
2016-06-04T07:38:56.971Z,5900
2016-06-04T07:40:16.210Z,6064
2016-06-04T07:40:57.007Z,6160
2016-06-04T07:41:57.291Z,6288
2016-06-04T07:42:56.982Z,6392
2016-06-04T07:43:57.016Z,6480
2016-06-04T07:44:57.002Z,6532
2016-06-04T07:46:16.210Z,6636
2016-06-04T07:46:57.007Z,6684
2016-06-04T07:47:57.026Z,6784
2016-06-04T07:48:57.013Z,6892
2016-06-04T07:49:57.046Z,6976
2016-06-04T07:50:57.018Z,7048
2016-06-04T07:51:57.037Z,7108
2016-06-04T07:52:57.054Z,7148
2016-06-04T07:53:57.026Z,7196
2016-06-04T07:54:57.075Z,7208
2016-06-04T07:55:57.954Z,7180
2016-06-04T07:56:57.112Z,7132
2016-06-04T07:57:57.068Z,7076
2016-06-04T07:58:57.056Z,7020
2016-06-04T07:59:57.058Z,6936
2016-06-04T08:00:57.045Z,6860
2016-06-04T08:01:57.095Z,6796
2016-06-04T08:02:56.910Z,6736
2016-06-04T08:03:57.084Z,6692
2016-06-04T08:04:57.087Z,6704
2016-06-04T08:05:57.074Z,6724
2016-06-04T08:06:57.092Z,6780
2016-06-04T08:07:57.080Z,6860
2016-06-04T08:08:57.098Z,6964
2016-06-04T08:10:03.369Z,7100
2016-06-04T08:10:57.119Z,7240
2016-06-04T08:11:56.980Z,7408
2016-06-04T08:12:58.640Z,7612
2016-06-04T08:13:57.283Z,7856
2016-06-04T08:14:57.160Z,8136
2016-06-04T08:15:57.133Z,8424
2016-06-04T08:16:57.135Z,8748
2016-06-04T08:17:57.138Z,9104
2016-06-04T08:18:57.156Z,9516
2016-06-04T08:19:57.159Z,9892
2016-06-04T08:20:57.177Z,10472
2016-06-04T08:21:57.039Z,10928
2016-06-04T08:22:57.182Z,10972
2016-06-04T08:23:57.231Z,11232
2016-06-04T08:25:09.925Z,11344
2016-06-04T08:25:58.253Z,11472
2016-06-04T08:26:57.396Z,12300
2016-06-04T08:27:57.181Z,12052
2016-06-04T08:28:57.214Z,12228
2016-06-04T08:29:57.092Z,12376
2016-06-04T08:30:57.203Z,12456
2016-06-04T08:31:57.206Z,12504
2016-06-04T08:32:57.209Z,12548
2016-06-04T08:33:57.211Z,12564
2016-06-04T08:34:57.247Z,12568
2016-06-04T08:35:57.311Z,12552
2016-06-04T08:36:57.282Z,12516
2016-06-04T08:37:57.269Z,12460
2016-06-04T08:38:57.272Z,12448
2016-06-04T08:39:57.274Z,12496
2016-06-04T08:40:57.121Z,12564
2016-06-04T08:41:57.530Z,12648
2016-06-04T08:43:00.798Z,12704
2016-06-04T08:43:57.285Z,12756
2016-06-04T08:44:57.305Z,12768
2016-06-04T08:45:57.291Z,12720
2016-06-04T08:46:57.294Z,12632
2016-06-04T08:47:57.296Z,12504
2016-06-04T08:48:57.330Z,12440
2016-06-04T08:49:57.349Z,12404
2016-06-04T08:50:57.335Z,12376
2016-06-04T08:51:57.354Z,12460
2016-06-04T08:52:57.357Z,12384
2016-06-04T08:53:57.359Z,12356
2016-06-04T08:54:57.362Z,12364
2016-06-04T08:55:57.381Z,12668
2016-06-04T08:56:57.398Z,12800
2016-06-04T08:58:01.167Z,12900
2016-06-04T08:58:57.670Z,13024
2016-06-04T08:59:57.406Z,13320
2016-06-04T09:00:57.456Z,13544
2016-06-04T09:01:57.412Z,14388
2016-06-04T09:03:09.980Z,14976
2016-06-04T09:03:57.433Z,15200
2016-06-04T09:04:57.436Z,15968
2016-06-04T09:05:57.439Z,16608
2016-06-04T09:06:57.442Z,16640
2016-06-04T09:07:57.428Z,16800
2016-06-04T09:08:57.463Z,17696
2016-06-04T09:09:57.481Z,16160
2016-06-04T09:11:10.221Z,16352
2016-06-04T09:11:57.689Z,15292
2016-06-04T09:12:58.661Z,13952
2016-06-04T09:13:57.522Z,13408
2016-06-04T09:14:57.369Z,12844
2016-06-04T09:15:57.512Z,12496
2016-06-04T09:17:10.268Z,12320
2016-06-04T09:17:57.518Z,12092
2016-06-04T09:18:57.535Z,11756
2016-06-04T09:19:57.571Z,11312
2016-06-04T09:20:57.541Z,10852
2016-06-04T09:21:57.576Z,10404
2016-06-04T09:23:10.284Z,9872
2016-06-04T09:23:57.456Z,9436
2016-06-04T09:24:57.599Z,8764
2016-06-04T09:25:57.618Z,7956
2016-06-04T09:26:57.620Z,7216
2016-06-04T09:27:57.639Z,6424
2016-06-04T09:29:17.113Z,5600
2016-06-04T09:29:57.629Z,5288
2016-06-04T09:30:57.647Z,4924
2016-06-04T09:31:57.664Z,4660
2016-06-04T09:32:57.636Z,4528
2016-06-04T09:33:57.656Z,4508
2016-06-04T09:35:16.879Z,4592
2016-06-04T09:35:57.676Z,4756
2016-06-04T09:36:57.678Z,5068
2016-06-04T09:37:57.666Z,5432
2016-06-04T09:38:57.684Z,5856
2016-06-04T09:39:57.686Z,6328
2016-06-04T09:40:57.689Z,6792
2016-06-04T09:41:57.723Z,7220
2016-06-04T09:42:57.726Z,7664
2016-06-04T09:43:58.244Z,8168
2016-06-04T09:44:57.731Z,8744
2016-06-04T09:45:57.702Z,9444
2016-06-04T09:46:57.736Z,9708
2016-06-04T09:47:57.739Z,10172
2016-06-04T09:48:57.741Z,10672
2016-06-04T09:50:10.497Z,10428
2016-06-04T09:50:57.747Z,10180
2016-06-04T09:51:57.782Z,9716
2016-06-04T09:52:57.752Z,9036
2016-06-04T09:53:57.614Z,8508
2016-06-04T09:55:16.964Z,8016
2016-06-04T09:55:57.776Z,8132
2016-06-04T09:56:57.810Z,8440
2016-06-04T09:57:58.422Z,8204
2016-06-04T09:58:57.613Z,7260
2016-06-04T09:59:57.787Z,6220
2016-06-04T10:00:57.837Z,5748
2016-06-04T10:01:57.808Z,5908
2016-06-04T10:03:04.108Z,6444
2016-06-04T10:03:57.829Z,7016
2016-06-04T10:04:57.864Z,7536
2016-06-04T10:05:57.711Z,7808
2016-06-04T10:06:57.867Z,8136
2016-06-04T10:07:57.897Z,8476
2016-06-04T10:08:57.943Z,8596
2016-06-04T10:10:10.742Z,8464
2016-06-04T10:10:58.008Z,8444
2016-06-04T10:11:58.005Z,8588
2016-06-04T10:12:57.940Z,8604
2016-06-04T10:13:57.938Z,8372
2016-06-04T10:14:58.075Z,8284
2016-06-04T10:15:58.084Z,8264
2016-06-04T10:16:58.105Z,8336
2016-06-04T10:18:10.851Z,8516
2016-06-04T10:18:58.101Z,8736
2016-06-04T10:19:57.686Z,9092
2016-06-04T10:20:57.972Z,9324
2016-06-04T10:21:58.132Z,9520
2016-06-04T10:22:58.136Z,9748
2016-06-04T10:23:57.843Z,10052
2016-06-04T10:25:04.442Z,10400
2016-06-04T10:25:58.758Z,10664
2016-06-04T10:26:58.198Z,10936
2016-06-04T10:27:58.155Z,11224
2016-06-04T10:28:59.501Z,11484
2016-06-04T10:29:58.224Z,11724
2016-06-04T10:31:01.210Z,11936
2016-06-04T10:32:04.463Z,12100
2016-06-04T10:32:58.185Z,12204
2016-06-04T10:33:58.187Z,12264
2016-06-04T10:34:58.221Z,12288
2016-06-04T10:36:04.474Z,12272
2016-06-04T10:36:59.648Z,12224
2016-06-04T10:37:58.213Z,12128
2016-06-04T10:38:58.248Z,11904
2016-06-04T10:39:58.219Z,11568
2016-06-04T10:41:10.990Z,11152
2016-06-04T10:41:58.271Z,10844
2016-06-04T10:42:58.274Z,10488
2016-06-04T10:44:11.826Z,10220
2016-06-04T10:44:58.279Z,10096
2016-06-04T10:45:58.267Z,9996
2016-06-04T10:46:58.284Z,9920
2016-06-04T10:47:58.273Z,9872
2016-06-04T10:48:58.290Z,9832
2016-06-04T10:50:11.045Z,9820
2016-06-04T10:50:58.139Z,9816
2016-06-04T10:51:58.283Z,9836
2016-06-04T10:52:58.301Z,9860
2016-06-04T10:54:11.072Z,9948
2016-06-04T10:54:58.338Z,10028
2016-06-04T10:55:58.371Z,10112
2016-06-04T10:56:58.327Z,10224
2016-06-04T10:57:58.252Z,10360
2016-06-04T10:58:58.332Z,10488
2016-06-04T10:59:58.352Z,10584
2016-06-04T11:00:58.369Z,10660
2016-06-04T11:01:58.325Z,10764
2016-06-04T11:02:58.344Z,10852
2016-06-04T11:03:58.363Z,10948
2016-06-04T11:04:58.365Z,11048
2016-06-04T11:06:17.635Z,11124
2016-06-04T11:06:58.354Z,11096
2016-06-04T11:07:58.451Z,11032
2016-06-04T11:08:58.376Z,10944
2016-06-04T11:09:58.409Z,10804
2016-06-04T11:11:11.148Z,10668
2016-06-04T11:11:58.398Z,10628
2016-06-04T11:12:58.449Z,10572
2016-06-04T11:14:01.342Z,10532
2016-06-04T11:14:58.438Z,10424
2016-06-04T11:15:58.457Z,10328
2016-06-04T11:17:11.165Z,10308
2016-06-04T11:17:58.431Z,10384
2016-06-04T11:18:58.449Z,10508
2016-06-04T11:19:58.452Z,10584
2016-06-04T11:20:58.423Z,10572
2016-06-04T11:21:58.489Z,10548
2016-06-04T11:22:58.522Z,10552
2016-06-04T11:23:58.525Z,10592
2016-06-04T11:24:58.528Z,10704
2016-06-04T11:26:11.267Z,10884
2016-06-04T11:26:58.720Z,10988
2016-06-04T11:27:58.411Z,11144
2016-06-04T11:28:58.586Z,11244
2016-06-04T11:29:58.589Z,11380
2016-06-04T11:30:58.497Z,11500
2016-06-04T11:31:58.563Z,11584
2016-06-04T11:33:17.786Z,11700
2016-06-04T11:33:58.568Z,11768
2016-06-04T11:34:58.524Z,11900
2016-06-04T11:35:58.558Z,12016
2016-06-04T11:36:58.591Z,12096
2016-06-04T11:37:58.515Z,12168
2016-06-04T11:38:58.535Z,12252
2016-06-04T11:40:11.274Z,12380
2016-06-04T11:40:58.665Z,12468
2016-06-04T11:41:59.120Z,12580
2016-06-04T11:42:58.623Z,12668
2016-06-04T11:43:58.594Z,12892
2016-06-04T11:44:58.629Z,13088
2016-06-04T11:46:11.320Z,13108
2016-06-04T11:46:58.586Z,13044
2016-06-04T11:47:58.621Z,13008
2016-06-04T11:48:58.609Z,13044
2016-06-04T11:49:58.626Z,13096
2016-06-04T11:50:58.832Z,13144
2016-06-04T11:51:58.695Z,13172
2016-06-04T11:52:58.634Z,13196
2016-06-04T11:53:58.653Z,13412
2016-06-04T11:54:58.640Z,13288
2016-06-04T11:55:58.658Z,13316
2016-06-04T11:56:58.644Z,13272
2016-06-04T11:58:04.914Z,13172
2016-06-04T11:58:58.681Z,13132
2016-06-04T11:59:58.669Z,13136
2016-06-04T12:01:17.877Z,12928
2016-06-04T12:01:58.658Z,12824
2016-06-04T12:02:58.708Z,12816
2016-06-04T12:03:58.710Z,12880
2016-06-04T12:05:11.433Z,13092
2016-06-04T12:05:58.700Z,12992
2016-06-04T12:06:58.688Z,12796
2016-06-04T12:07:58.705Z,12480
2016-06-04T12:08:58.709Z,12292
2016-06-04T12:10:11.461Z,12280
2016-06-04T12:10:59.168Z,12120
2016-06-04T12:11:59.295Z,12040
2016-06-04T12:12:58.751Z,11752
2016-06-04T12:13:58.769Z,11792
2016-06-04T12:15:11.506Z,11652
2016-06-04T12:15:58.774Z,11516
2016-06-04T12:17:18.029Z,11364
2016-06-04T12:18:11.514Z,11112
2016-06-04T12:18:58.814Z,11124
2016-06-04T12:19:58.770Z,11120
2016-06-04T12:21:11.523Z,10636
2016-06-04T12:21:58.822Z,10376
2016-06-04T12:22:58.809Z,10272
2016-06-04T12:23:58.811Z,10692
2016-06-04T12:24:58.845Z,10940
2016-06-04T12:25:58.864Z,11056
2016-06-04T12:26:58.835Z,10760
2016-06-04T12:28:02.401Z,10616
2016-06-04T12:28:58.950Z,10480
2016-06-04T12:29:58.859Z,10620
2016-06-04T12:30:58.861Z,10588
2016-06-04T12:31:58.849Z,10584
2016-06-04T12:32:58.883Z,10484
2016-06-04T12:33:58.869Z,10216
2016-06-04T12:34:58.872Z,10140
2016-06-04T12:35:58.891Z,10032
2016-06-04T12:36:58.988Z,10076
2016-06-04T12:37:58.927Z,10180
2016-06-04T12:38:58.914Z,10388
2016-06-04T12:39:58.761Z,10364
2016-06-04T12:40:58.919Z,10512
2016-06-04T12:41:58.938Z,10728
2016-06-04T12:42:59.347Z,11384
2016-06-04T12:43:58.943Z,11460
2016-06-04T12:44:58.946Z,11904
2016-06-04T12:45:58.979Z,12060
2016-06-04T12:46:58.968Z,12440
2016-06-04T12:47:59.017Z,12404
2016-06-04T12:48:58.973Z,12160
2016-06-04T12:49:58.975Z,12184
2016-06-04T12:50:58.853Z,12376
2016-06-04T12:51:59.012Z,12392
2016-06-04T12:53:00.436Z,12236
2016-06-04T12:53:59.033Z,12096
2016-06-04T12:54:59.020Z,11968
2016-06-04T12:55:59.023Z,12052
2016-06-04T12:56:59.056Z,11460
2016-06-04T12:57:59.044Z,10764
2016-06-04T12:58:59.047Z,10244
2016-06-04T12:59:59.033Z,9548
2016-06-04T13:00:59.067Z,8864
2016-06-04T13:01:59.055Z,8488
2016-06-04T13:02:59.058Z,8460
2016-06-04T13:03:59.060Z,8612
2016-06-04T13:04:59.063Z,8684
2016-06-04T13:05:59.066Z,8768
2016-06-04T13:06:59.099Z,8940
2016-06-04T13:07:59.086Z,9108
2016-06-04T13:08:59.088Z,9364
2016-06-04T13:09:59.607Z,9772
2016-06-04T13:10:59.313Z,10216
2016-06-04T13:11:59.113Z,10632
2016-06-04T13:12:59.100Z,11016
2016-06-04T13:13:58.837Z,12068
2016-06-04T13:14:59.120Z,12776
2016-06-04T13:15:59.139Z,13164
2016-06-04T13:16:59.141Z,13460
2016-06-04T13:17:59.160Z,13476
2016-06-04T13:18:59.179Z,13220
2016-06-04T13:19:59.165Z,12976
2016-06-04T13:20:59.276Z,12816
2016-06-04T13:21:59.359Z,12644
2016-06-04T13:22:59.204Z,12516
2016-06-04T13:23:59.207Z,12444
2016-06-04T13:24:59.272Z,12400
2016-06-04T13:25:59.229Z,12212
2016-06-04T13:27:00.450Z,12004
2016-06-04T13:27:59.265Z,11728
2016-06-04T13:28:59.220Z,11544
2016-06-04T13:29:59.395Z,11440
2016-06-04T13:30:59.398Z,11308